Milagro, New Mexico
Current Conditions -  °F | °C
As of 3:53 PM on Tuesday 21 Oct 2014 (Local Time) from KCQC Reporting Station
Overcast Overcast  
Wind Chill: 60°   Ceiling: 4500
Heat Index: 60°   Visibility: 10mi
Dew Point: 42°   Wind: 10mph
Humidity: 51%   Direction: 240°WSW
Pressure: 30.14"   Gusts: NA
Location:  34.5735°N, 105.476°W
Report Text: KCQC 212153Z AUTO 24009KT 10SM SCT037 BKN045 OVC075 16/06 A3014 RMK AO2 SLP140 T01560056
Loading
Personal Weather Stations






























Interactive Weather Map
Tropical Storm Tracking
New forecast layout! Learn more

10-Day Weather Forecast

Advertisements
Track Severe Weather on mobile